createdAt,value
2016-04-02T00:00:01.251Z,8.52
2016-04-02T00:01:01.255Z,8.56
2016-04-02T00:02:01.257Z,8.59
2016-04-02T00:03:01.244Z,8.52
2016-04-02T00:04:01.341Z,8.57
2016-04-02T00:05:01.249Z,8.56
2016-04-02T00:06:01.252Z,8.59
2016-04-02T00:07:01.271Z,8.6
2016-04-02T00:08:01.257Z,8.61
2016-04-02T00:09:01.245Z,8.6
2016-04-02T00:10:01.262Z,8.59
2016-04-02T00:11:01.251Z,8.59
2016-04-02T00:12:01.253Z,8.56
2016-04-02T00:13:01.240Z,8.64
2016-04-02T00:14:01.243Z,8.64
2016-04-02T00:15:01.245Z,8.64
2016-04-02T00:16:01.264Z,8.66
2016-04-02T00:17:01.251Z,8.66
2016-04-02T00:18:01.253Z,8.66
2016-04-02T00:19:01.287Z,8.66
2016-04-02T00:20:04.414Z,8.66
2016-04-02T00:21:01.246Z,8.61
2016-04-02T00:22:01.248Z,8.64
2016-04-02T00:23:01.251Z,8.68
2016-04-02T00:24:01.254Z,8.71
2016-04-02T00:25:01.256Z,8.68
2016-04-02T00:26:01.244Z,8.68
2016-04-02T00:27:01.247Z,8.71
2016-04-02T00:28:01.250Z,8.72
2016-04-02T00:29:01.236Z,8.68
2016-04-02T00:30:01.254Z,8.74
2016-04-02T00:31:01.257Z,8.75
2016-04-02T00:32:01.244Z,8.72
2016-04-02T00:33:01.246Z,8.71
2016-04-02T00:34:01.280Z,8.78
2016-04-02T00:35:01.252Z,8.87
2016-04-02T00:36:01.244Z,8.82
2016-04-02T00:37:01.262Z,8.86
2016-04-02T00:38:01.265Z,8.86
2016-04-02T00:39:01.268Z,8.86
2016-04-02T00:40:01.239Z,8.89
2016-04-02T00:41:01.243Z,8.9
2016-04-02T00:42:01.245Z,8.89
2016-04-02T00:43:01.247Z,8.89
2016-04-02T00:44:01.251Z,8.81
2016-04-02T00:45:01.253Z,8.87
2016-04-02T00:46:01.256Z,8.87
2016-04-02T00:47:01.258Z,8.86
2016-04-02T00:48:01.245Z,8.82
2016-04-02T00:49:01.295Z,8.89
2016-04-02T00:50:01.235Z,8.87
2016-04-02T00:51:01.269Z,8.87
2016-04-02T00:52:01.272Z,8.84
2016-04-02T00:53:01.274Z,8.92
2016-04-02T00:54:01.246Z,8.93
2016-04-02T00:55:01.249Z,8.97
2016-04-02T00:56:01.266Z,9
2016-04-02T00:57:01.254Z,9.02
2016-04-02T00:58:01.240Z,8.95
2016-04-02T00:59:01.275Z,9.02
2016-04-02T01:00:01.262Z,8.96
2016-04-02T01:01:01.249Z,8.99
2016-04-02T01:02:01.252Z,9.09
2016-04-02T01:03:01.254Z,9.03
2016-04-02T01:04:01.413Z,9.03
2016-04-02T01:05:01.244Z,9.11
2016-04-02T01:06:01.263Z,9.11
2016-04-02T01:07:01.249Z,9.15
2016-04-02T01:08:01.251Z,9.18
2016-04-02T01:09:01.271Z,9.19
2016-04-02T01:10:01.243Z,9.15
2016-04-02T01:11:01.260Z,9.19
2016-04-02T01:12:01.248Z,9.24
2016-04-02T01:13:01.250Z,9.18
2016-04-02T01:14:01.268Z,9.27
2016-04-02T01:15:01.255Z,9.21
2016-04-02T01:16:01.259Z,9.26
2016-04-02T01:17:01.245Z,9.29
2016-04-02T01:18:01.247Z,9.3
2016-04-02T01:19:01.297Z,9.31
2016-04-02T01:20:01.253Z,9.29
2016-04-02T01:21:01.256Z,9.26
2016-04-02T01:22:01.259Z,9.27
2016-04-02T01:23:01.246Z,9.27
2016-04-02T01:24:01.264Z,9.31
2016-04-02T01:25:01.250Z,9.26
2016-04-02T01:26:01.269Z,9.26
2016-04-02T01:27:01.256Z,9.19
2016-04-02T01:28:01.244Z,9.29
2016-04-02T01:29:01.247Z,9.26
2016-04-02T01:30:01.249Z,9.22
2016-04-02T01:31:01.252Z,9.22
2016-04-02T01:32:01.239Z,9.21
2016-04-02T01:33:01.257Z,9.05
2016-04-02T01:34:01.291Z,9.18
2016-04-02T01:35:01.278Z,9.09
2016-04-02T01:36:01.249Z,9.12
2016-04-02T01:37:01.268Z,9.09
2016-04-02T01:38:01.240Z,9.02
2016-04-02T01:39:01.257Z,9.02
2016-04-02T01:40:01.245Z,8.99
2016-04-02T01:41:01.248Z,9
2016-04-02T01:42:01.250Z,9.08
2016-04-02T01:43:01.253Z,9
2016-04-02T01:44:01.271Z,9.03
2016-04-02T01:45:01.242Z,8.92
2016-04-02T01:46:01.261Z,9.05
2016-04-02T01:47:01.248Z,9.05
2016-04-02T01:48:01.250Z,9.02
2016-04-02T01:49:01.331Z,8.97
2016-04-02T01:50:01.255Z,9.02
2016-04-02T01:51:01.242Z,9
2016-04-02T01:52:01.261Z,8.95
2016-04-02T01:53:01.248Z,9.05
2016-04-02T01:54:01.250Z,9.03
2016-04-02T01:55:01.253Z,8.96
2016-04-02T01:56:01.249Z,9.05
2016-04-02T01:57:01.240Z,9.02
2016-04-02T01:58:01.216Z,8.99
2016-04-02T01:59:01.222Z,8.9
2016-04-02T02:00:01.198Z,8.96
2016-04-02T02:01:01.178Z,9.05
2016-04-02T02:02:01.192Z,8.96
2016-04-02T02:03:01.191Z,8.9
2016-04-02T02:04:01.298Z,9
2016-04-02T02:05:01.188Z,8.97
2016-04-02T02:06:01.172Z,8.97
2016-04-02T02:07:01.173Z,9
2016-04-02T02:08:01.174Z,8.99
2016-04-02T02:09:01.169Z,8.96
2016-04-02T02:10:01.170Z,8.97
2016-04-02T02:11:01.172Z,8.95
2016-04-02T02:12:01.175Z,9.08
2016-04-02T02:13:01.162Z,9.03
2016-04-02T02:14:01.179Z,9.03
2016-04-02T02:15:01.156Z,9.03
2016-04-02T02:16:01.159Z,9.03
2016-04-02T02:17:01.177Z,8.99
2016-04-02T02:18:01.148Z,9.08
2016-04-02T02:19:01.228Z,8.99
2016-04-02T02:20:01.168Z,9.05
2016-04-02T02:21:01.154Z,8.95
2016-04-02T02:22:01.173Z,8.99
2016-04-02T02:23:01.159Z,9.02
2016-04-02T02:24:01.178Z,9.09
2016-04-02T02:25:01.165Z,8.96
2016-04-02T02:26:01.152Z,9.02
2016-04-02T02:27:01.155Z,9.05
2016-04-02T02:28:01.159Z,9.02
2016-04-02T02:29:01.161Z,8.93
2016-04-02T02:30:01.179Z,8.97
2016-04-02T02:31:01.166Z,8.93
2016-04-02T02:32:01.153Z,8.96
2016-04-02T02:33:01.156Z,9.03
2016-04-02T02:34:01.206Z,8.95
2016-04-02T02:35:01.178Z,8.99
2016-04-02T02:36:01.164Z,9.03
2016-04-02T02:37:01.167Z,9
2016-04-02T02:38:01.154Z,9.03
2016-04-02T02:39:01.172Z,8.99
2016-04-02T02:40:01.159Z,9.02
2016-04-02T02:41:01.177Z,9.03
2016-04-02T02:42:01.165Z,9.08
2016-04-02T02:43:01.167Z,9
2016-04-02T02:44:01.155Z,8.97
2016-04-02T02:45:01.173Z,9.02
2016-04-02T02:46:01.175Z,9.03
2016-04-02T02:47:01.163Z,9
2016-04-02T02:48:01.009Z,8.97
2016-04-02T02:49:01.090Z,8.99
2016-04-02T02:50:01.014Z,8.99
2016-04-02T02:51:01.157Z,9.03
2016-04-02T02:52:01.176Z,9.08
2016-04-02T02:53:01.163Z,9.09
2016-04-02T02:54:01.181Z,9.03
2016-04-02T02:55:01.152Z,9
2016-04-02T02:56:01.171Z,9.02
2016-04-02T02:57:01.158Z,9.12
2016-04-02T02:58:01.161Z,9.02
2016-04-02T02:59:01.163Z,9.11
2016-04-02T03:00:01.151Z,9.15
2016-04-02T03:01:01.168Z,9.15
2016-04-02T03:02:01.171Z,9.16
2016-04-02T03:03:01.174Z,9.13
2016-04-02T03:04:01.208Z,9.09
2016-04-02T03:05:01.180Z,9.12
2016-04-02T03:06:01.167Z,9.15
2016-04-02T03:07:01.170Z,9.08
2016-04-02T03:08:01.157Z,9.08
2016-04-02T03:09:01.176Z,9.11
2016-04-02T03:10:01.178Z,9.05
2016-04-02T03:11:01.181Z,9.13
2016-04-02T03:12:01.183Z,9.13
2016-04-02T03:13:01.155Z,9.02
2016-04-02T03:14:01.173Z,9.03
2016-04-02T03:15:01.160Z,9.02
2016-04-02T03:16:01.178Z,9.05
2016-04-02T03:17:01.165Z,9.03
2016-04-02T03:18:01.183Z,9
2016-04-02T03:19:01.217Z,9.05
2016-04-02T03:20:01.158Z,8.9
2016-04-02T03:21:01.177Z,9.08
2016-04-02T03:22:01.163Z,8.99
2016-04-02T03:23:01.166Z,8.97
2016-04-02T03:24:01.168Z,9.09
2016-04-02T03:25:01.155Z,9
2016-04-02T03:26:01.158Z,9.05
2016-04-02T03:27:01.176Z,9.05
2016-04-02T03:28:01.163Z,8.99
2016-04-02T03:29:01.151Z,9.02
2016-04-02T03:30:01.169Z,9
2016-04-02T03:31:01.157Z,9.03
2016-04-02T03:32:01.159Z,9
2016-04-02T03:33:01.162Z,8.97
2016-04-02T03:34:01.289Z,9
2016-04-02T03:35:01.151Z,8.97
2016-04-02T03:36:01.170Z,9.03
2016-04-02T03:37:01.157Z,8.96
2016-04-02T03:38:01.159Z,8.95
2016-04-02T03:39:01.162Z,8.92
2016-04-02T03:40:01.164Z,8.95
2016-04-02T03:41:01.167Z,8.97
2016-04-02T03:42:01.170Z,8.95
2016-04-02T03:43:01.157Z,8.93
2016-04-02T03:44:01.160Z,8.92
2016-04-02T03:45:01.162Z,8.89
2016-04-02T03:46:01.165Z,8.97
2016-04-02T03:47:01.153Z,8.9
2016-04-02T03:48:01.155Z,9.03
2016-04-02T03:49:01.502Z,8.89
2016-04-02T03:50:01.160Z,8.93
2016-04-02T03:51:01.163Z,9
2016-04-02T03:52:01.165Z,8.87
2016-04-02T03:53:01.152Z,8.9
2016-04-02T03:54:01.171Z,8.9
2016-04-02T03:55:01.157Z,8.81
2016-04-02T03:56:01.160Z,8.9
2016-04-02T03:57:01.163Z,8.74
2016-04-02T03:58:01.166Z,8.78
2016-04-02T03:59:01.169Z,8.79
2016-04-02T04:00:01.171Z,8.69
2016-04-02T04:01:01.159Z,8.74
2016-04-02T04:02:01.161Z,8.74
2016-04-02T04:03:01.164Z,8.64
2016-04-02T04:04:01.229Z,8.64
2016-04-02T04:05:01.170Z,8.61
2016-04-02T04:06:01.157Z,8.64
2016-04-02T04:07:01.160Z,8.66
2016-04-02T04:08:01.162Z,8.6
2016-04-02T04:09:01.149Z,8.56
2016-04-02T04:10:01.168Z,8.57
2016-04-02T04:11:01.170Z,8.59
2016-04-02T04:12:01.157Z,8.57
2016-04-02T04:13:01.159Z,8.63
2016-04-02T04:14:01.162Z,8.5
2016-04-02T04:15:01.181Z,8.52
2016-04-02T04:16:01.152Z,8.49
2016-04-02T04:17:01.170Z,8.52
2016-04-02T04:18:01.157Z,8.45
2016-04-02T04:19:01.238Z,8.52
2016-04-02T04:20:01.178Z,8.52
2016-04-02T04:21:01.181Z,8.56
2016-04-02T04:22:01.169Z,8.44
2016-04-02T04:23:01.155Z,8.44
2016-04-02T04:24:01.158Z,8.45
2016-04-02T04:25:01.161Z,8.45
2016-04-02T04:26:01.163Z,8.46
2016-04-02T04:27:01.166Z,8.38
2016-04-02T04:28:01.168Z,8.34
2016-04-02T04:29:00.999Z,8.38
2016-04-02T04:30:01.173Z,8.36
2016-04-02T04:31:01.160Z,8.32
2016-04-02T04:32:01.210Z,8.36
2016-04-02T04:33:01.166Z,8.38
2016-04-02T04:34:01.028Z,8.36
2016-04-02T04:35:01.172Z,8.35
2016-04-02T04:36:01.159Z,8.38
2016-04-02T04:37:01.162Z,8.34
2016-04-02T04:38:01.165Z,8.28
2016-04-02T04:39:01.198Z,8.23
2016-04-02T04:40:01.154Z,8.24
2016-04-02T04:41:01.172Z,8.32
2016-04-02T04:42:01.159Z,8.23
2016-04-02T04:43:01.147Z,8.34
2016-04-02T04:44:01.165Z,8.28
2016-04-02T04:45:01.153Z,8.31
2016-04-02T04:46:01.170Z,8.32
2016-04-02T04:47:01.158Z,8.28
2016-04-02T04:48:01.176Z,8.31
2016-04-02T04:49:01.100Z,8.34
2016-04-02T04:50:01.150Z,8.24
2016-04-02T04:51:01.168Z,8.32
2016-04-02T04:52:01.171Z,8.24
2016-04-02T04:53:01.158Z,8.27
2016-04-02T04:54:01.160Z,8.14
2016-04-02T04:55:01.163Z,8.13
2016-04-02T04:56:01.150Z,8.13
2016-04-02T04:57:01.168Z,8.09
2016-04-02T04:58:01.156Z,8.09
2016-04-02T04:59:01.158Z,8.09
2016-04-02T05:00:01.177Z,8.06
2016-04-02T05:01:01.149Z,8.08
2016-04-02T05:02:01.151Z,8.05
2016-04-02T05:03:01.169Z,7.99
2016-04-02T05:04:01.187Z,8.05
2016-04-02T05:05:01.159Z,8.05
2016-04-02T05:06:01.162Z,7.99
2016-04-02T05:07:01.164Z,8.11
2016-04-02T05:08:01.167Z,8.01
2016-04-02T05:09:01.153Z,8.01
2016-04-02T05:10:01.156Z,7.96
2016-04-02T05:11:01.159Z,8.01
2016-04-02T05:12:01.161Z,7.9
2016-04-02T05:13:01.165Z,7.9
2016-04-02T05:14:01.167Z,7.85
2016-04-02T05:15:01.170Z,7.85
2016-04-02T05:16:01.173Z,7.85
2016-04-02T05:17:01.159Z,7.87
2016-04-02T05:18:01.162Z,7.88
2016-04-02T05:19:01.211Z,7.78
2016-04-02T05:20:01.167Z,7.88
2016-04-02T05:21:01.170Z,7.87
2016-04-02T05:22:01.158Z,7.85
2016-04-02T05:23:01.161Z,7.84
2016-04-02T05:24:01.164Z,7.84
2016-04-02T05:25:01.166Z,7.91
2016-04-02T05:26:01.153Z,7.85
2016-04-02T05:27:01.171Z,7.84
2016-04-02T05:28:01.158Z,7.85
2016-04-02T05:29:01.161Z,7.9
2016-04-02T05:30:01.179Z,7.96
2016-04-02T05:31:01.166Z,7.98
2016-04-02T05:32:01.153Z,7.98
2016-04-02T05:33:01.156Z,7.95
2016-04-02T05:34:01.205Z,7.95
2016-04-02T05:35:01.145Z,7.98
2016-04-02T05:36:01.164Z,7.98
2016-04-02T05:37:01.151Z,8.01
2016-04-02T05:38:01.154Z,7.99
2016-04-02T05:39:01.157Z,8.03
2016-04-02T05:40:01.159Z,8.05
2016-04-02T05:41:01.162Z,8.01
2016-04-02T05:42:01.164Z,8.06
2016-04-02T05:43:01.151Z,8.13
2016-04-02T05:44:01.154Z,8.13
2016-04-02T05:45:01.156Z,8.17
2016-04-02T05:46:01.159Z,8.18
2016-04-02T05:47:01.146Z,8.23
2016-04-02T05:48:01.164Z,8.24
2016-04-02T05:49:01.449Z,8.23
2016-04-02T05:50:01.155Z,8.31
2016-04-02T05:51:01.173Z,8.38
2016-04-02T05:52:01.161Z,8.44
2016-04-02T05:53:01.163Z,8.53
2016-04-02T05:54:01.166Z,8.44
2016-04-02T05:55:01.169Z,8.56
2016-04-02T05:56:01.155Z,8.61
2016-04-02T05:57:01.189Z,8.71
2016-04-02T05:58:01.160Z,8.74
2016-04-02T05:59:01.163Z,8.92
2016-04-02T06:00:01.166Z,8.96
2016-04-02T06:01:01.153Z,8.96
2016-04-02T06:02:01.172Z,8.97
2016-04-02T06:03:01.158Z,9.18
2016-04-02T06:04:01.161Z,9.24
2016-04-02T06:05:01.164Z,9.33
2016-04-02T06:06:01.151Z,9.45
2016-04-02T06:07:01.169Z,9.54
2016-04-02T06:08:01.156Z,9.52
2016-04-02T06:09:01.159Z,9.64
2016-04-02T06:10:01.177Z,9.73
2016-04-02T06:11:01.164Z,9.82
2016-04-02T06:12:01.167Z,9.94
2016-04-02T06:13:01.153Z,9.95
2016-04-02T06:14:01.172Z,9.99
2016-04-02T06:15:01.159Z,10.03
2016-04-02T06:16:01.178Z,10.15
2016-04-02T06:17:01.165Z,10.13
2016-04-02T06:18:01.168Z,10.21
2016-04-02T06:19:01.186Z,10.24
2016-04-02T06:20:01.173Z,10.28
2016-04-02T06:21:01.160Z,10.42
2016-04-02T06:22:01.194Z,10.39
2016-04-02T06:23:01.150Z,10.46
2016-04-02T06:24:01.183Z,10.46
2016-04-02T06:25:01.155Z,10.46
2016-04-02T06:26:01.173Z,10.46
2016-04-02T06:27:01.160Z,10.57
2016-04-02T06:28:01.163Z,10.59
2016-04-02T06:29:01.165Z,10.51
2016-04-02T06:30:01.199Z,10.61
2016-04-02T06:31:01.171Z,10.69
2016-04-02T06:32:01.157Z,10.69
2016-04-02T06:33:01.161Z,10.76
2016-04-02T06:34:01.179Z,10.75
2016-04-02T06:35:01.151Z,10.86
2016-04-02T06:36:01.168Z,10.87
2016-04-02T06:37:01.171Z,10.77
2016-04-02T06:38:01.174Z,10.79
2016-04-02T06:39:01.177Z,10.94
2016-04-02T06:40:01.165Z,10.95
2016-04-02T06:41:01.168Z,10.94
2016-04-02T06:42:01.170Z,10.97
2016-04-02T06:43:01.157Z,10.94
2016-04-02T06:44:01.160Z,10.94
2016-04-02T06:45:01.178Z,10.98
2016-04-02T06:46:01.181Z,10.95
2016-04-02T06:47:01.167Z,10.94
2016-04-02T06:48:01.170Z,10.84
2016-04-02T06:49:01.189Z,10.89
2016-04-02T06:50:01.175Z,11.07
2016-04-02T06:51:01.178Z,11.07
2016-04-02T06:52:01.164Z,11.25
2016-04-02T06:53:01.199Z,11.27
2016-04-02T06:54:01.170Z,11.38
2016-04-02T06:55:01.189Z,11.38
2016-04-02T06:56:01.176Z,11.52
2016-04-02T06:57:01.163Z,11.65
2016-04-02T06:58:01.181Z,11.78
2016-04-02T06:59:01.168Z,11.89
2016-04-02T07:00:01.186Z,11.99
2016-04-02T07:01:01.174Z,12.1
2016-04-02T07:02:01.191Z,12.35
2016-04-02T07:03:01.179Z,12.48
2016-04-02T07:04:01.196Z,12.54
2016-04-02T07:05:01.184Z,12.73
2016-04-02T07:06:01.171Z,12.84
2016-04-02T07:07:01.174Z,12.94
2016-04-02T07:08:01.176Z,13.06
2016-04-02T07:09:01.180Z,13.26
2016-04-02T07:10:01.182Z,13.27
2016-04-02T07:11:01.185Z,13.36
2016-04-02T07:12:01.204Z,13.54
2016-04-02T07:13:01.175Z,13.71
2016-04-02T07:14:01.193Z,13.86
2016-04-02T07:15:01.181Z,14.05
2016-04-02T07:16:01.183Z,14.31
2016-04-02T07:17:01.201Z,14.25
2016-04-02T07:18:01.189Z,14.38
2016-04-02T07:19:01.253Z,14.49
2016-04-02T07:20:01.194Z,14.53
2016-04-02T07:21:01.197Z,14.63
2016-04-02T07:22:01.199Z,14.71
2016-04-02T07:23:01.186Z,14.85
2016-04-02T07:24:01.205Z,14.82
2016-04-02T07:25:01.191Z,14.89
2016-04-02T07:26:01.194Z,14.92
2016-04-02T07:27:01.196Z,14.94
2016-04-02T07:28:01.199Z,14.9
2016-04-02T07:29:01.202Z,14.99
2016-04-02T07:30:01.205Z,14.92
2016-04-02T07:31:01.192Z,14.96
2016-04-02T07:32:01.210Z,14.89
2016-04-02T07:33:01.213Z,14.99
2016-04-02T07:34:01.324Z,15.04
2016-04-02T07:35:01.202Z,15.1
2016-04-02T07:36:01.221Z,15.23
2016-04-02T07:37:01.208Z,15.32
2016-04-02T07:38:01.210Z,15.35
2016-04-02T07:39:01.229Z,15.45
2016-04-02T07:40:01.215Z,15.47
2016-04-02T07:41:01.218Z,15.43
2016-04-02T07:42:01.221Z,15.44
2016-04-02T07:43:01.224Z,15.54
2016-04-02T07:44:01.227Z,15.48
2016-04-02T07:45:01.292Z,15.47
2016-04-02T07:46:01.232Z,15.44
2016-04-02T07:47:01.219Z,15.54
2016-04-02T07:48:01.222Z,15.48
2016-04-02T07:49:01.303Z,15.57
2016-04-02T07:50:01.227Z,15.62
2016-04-02T07:51:01.246Z,15.65
2016-04-02T07:52:01.233Z,15.62
2016-04-02T07:53:01.236Z,15.59
2016-04-02T07:54:01.239Z,15.7
2016-04-02T07:55:01.241Z,15.66
2016-04-02T07:56:01.244Z,15.78
2016-04-02T07:57:01.261Z,15.84
2016-04-02T07:58:01.233Z,15.83
2016-04-02T07:59:01.235Z,15.83
2016-04-02T08:00:01.254Z,15.9
2016-04-02T08:01:01.257Z,15.9
2016-04-02T08:02:01.260Z,15.99
2016-04-02T08:03:01.263Z,15.98
2016-04-02T08:04:01.297Z,16.09
2016-04-02T08:05:01.252Z,16.18
2016-04-02T08:06:01.255Z,16.24
2016-04-02T08:07:01.257Z,16.34
2016-04-02T08:08:01.260Z,16.36
2016-04-02T08:09:01.262Z,16.25
2016-04-02T08:10:01.265Z,16.24
2016-04-02T08:11:01.268Z,16.37
2016-04-02T08:12:01.270Z,16.61
2016-04-02T08:13:01.273Z,16.79
2016-04-02T08:14:01.276Z,16.94
2016-04-02T08:15:01.279Z,17.12
2016-04-02T08:16:01.266Z,17.23
2016-04-02T08:17:01.284Z,17.19
2016-04-02T08:18:01.271Z,17.12
2016-04-02T08:19:01.320Z,17.12
2016-04-02T08:20:01.308Z,17.02
2016-04-02T08:21:01.279Z,17.1
2016-04-02T08:22:01.282Z,16.83
2016-04-02T08:23:01.301Z,16.66
2016-04-02T08:24:01.287Z,16.57
2016-04-02T08:25:01.306Z,16.29
2016-04-02T08:26:01.308Z,16.03
2016-04-02T08:27:01.311Z,15.9
2016-04-02T08:28:01.297Z,15.7
2016-04-02T08:29:01.316Z,15.52
2016-04-02T08:30:01.303Z,15.33
2016-04-02T08:31:01.306Z,15.36
2016-04-02T08:32:01.325Z,15.3
2016-04-02T08:33:01.311Z,15.14
2016-04-02T08:34:01.346Z,15.02
2016-04-02T08:35:01.332Z,15.05
2016-04-02T08:36:01.319Z,15
2016-04-02T08:37:01.337Z,14.92
2016-04-02T08:38:01.324Z,14.96
2016-04-02T08:39:01.343Z,15.05
2016-04-02T08:40:01.330Z,15.14
2016-04-02T08:41:01.332Z,15.17
2016-04-02T08:42:01.336Z,15.23
2016-04-02T08:43:01.338Z,15.37
2016-04-02T08:44:01.341Z,15.52
2016-04-02T08:45:01.343Z,15.67
2016-04-02T08:46:01.346Z,15.75
2016-04-02T08:47:01.349Z,15.9
2016-04-02T08:48:01.368Z,16.12
2016-04-02T08:49:01.354Z,16.21
2016-04-02T08:50:01.357Z,16.31
2016-04-02T08:51:01.375Z,16.47
2016-04-02T08:52:01.362Z,16.55
2016-04-02T08:53:01.365Z,16.58
2016-04-02T08:54:01.367Z,16.69
2016-04-02T08:55:01.370Z,16.83
2016-04-02T08:56:01.373Z,16.95
2016-04-02T08:57:01.376Z,17.07
2016-04-02T08:58:01.395Z,17.13
2016-04-02T08:59:01.381Z,17.31
2016-04-02T09:00:01.400Z,17.28
2016-04-02T09:01:01.386Z,17.31
2016-04-02T09:02:01.374Z,17.35
2016-04-02T09:03:01.391Z,17.49
2016-04-02T09:04:01.395Z,17.68
2016-04-02T09:05:01.397Z,17.71
2016-04-02T09:06:01.400Z,17.59
2016-04-02T09:07:01.402Z,17.54
2016-04-02T09:08:01.405Z,17.5
2016-04-02T09:09:01.407Z,17.47
2016-04-02T09:10:01.395Z,17.44
2016-04-02T09:11:01.398Z,17.5
2016-04-02T09:12:01.416Z,17.49
2016-04-02T09:13:01.419Z,17.37
2016-04-02T09:14:01.421Z,17.32
2016-04-02T09:15:01.424Z,17.31
2016-04-02T09:16:01.427Z,17.31
2016-04-02T09:17:01.430Z,17.34
2016-04-02T09:18:01.433Z,17.41
2016-04-02T09:19:01.435Z,17.68
2016-04-02T09:20:01.438Z,17.84
2016-04-02T09:21:01.440Z,17.94
2016-04-02T09:22:01.428Z,18.08
2016-04-02T09:23:01.430Z,18.23
2016-04-02T09:24:01.448Z,18.16
2016-04-02T09:25:01.451Z,18.12
2016-04-02T09:26:01.454Z,18.18
2016-04-02T09:27:01.457Z,18.33
2016-04-02T09:28:01.444Z,18.26
2016-04-02T09:29:01.462Z,18.27
2016-04-02T09:30:01.464Z,18.23
2016-04-02T09:31:01.467Z,18.42
2016-04-02T09:32:01.454Z,18.74
2016-04-02T09:33:01.472Z,18.68
2016-04-02T09:34:01.475Z,18.68
2016-04-02T09:35:01.463Z,18.71
2016-04-02T09:36:01.481Z,18.64
2016-04-02T09:37:01.468Z,18.78
2016-04-02T09:38:01.471Z,18.73
2016-04-02T09:39:01.488Z,18.73
2016-04-02T09:40:01.477Z,18.63
2016-04-02T09:41:01.479Z,18.39
2016-04-02T09:42:01.497Z,18.42
2016-04-02T09:43:01.499Z,18.24
2016-04-02T09:44:01.487Z,18.18
2016-04-02T09:45:01.521Z,18.37
2016-04-02T09:46:01.507Z,18.3
2016-04-02T09:47:01.510Z,18.16
2016-04-02T09:48:01.512Z,18.15
2016-04-02T09:49:01.516Z,18.16
2016-04-02T09:50:01.518Z,18.23
2016-04-02T09:51:01.537Z,18.26
2016-04-02T09:52:01.523Z,18.34
2016-04-02T09:53:01.526Z,18.51
2016-04-02T09:54:01.529Z,18.78
2016-04-02T09:55:01.531Z,19.22
2016-04-02T09:56:01.534Z,19.55
2016-04-02T09:57:01.553Z,19.85
2016-04-02T09:58:01.540Z,19.94
2016-04-02T09:59:01.559Z,20.15
2016-04-02T10:00:01.545Z,20.32
2016-04-02T10:01:01.564Z,20.42
2016-04-02T10:02:01.566Z,20.71
2016-04-02T10:03:01.553Z,20.92
2016-04-02T10:04:01.603Z,21
2016-04-02T10:05:01.559Z,21.23
2016-04-02T10:06:01.562Z,21.37
2016-04-02T10:07:01.564Z,21.53
2016-04-02T10:08:01.583Z,21.56
2016-04-02T10:09:01.585Z,21.59
2016-04-02T10:10:01.572Z,21.78
2016-04-02T10:11:01.590Z,21.74
2016-04-02T10:12:01.593Z,21.63
2016-04-02T10:13:01.596Z,21.59
2016-04-02T10:14:01.583Z,21.32
2016-04-02T10:15:01.602Z,21.11
2016-04-02T10:16:01.604Z,20.98
2016-04-02T10:17:01.607Z,20.9
2016-04-02T10:18:01.609Z,20.95
2016-04-02T10:19:01.612Z,20.74
2016-04-02T10:20:01.614Z,20.52
2016-04-02T10:21:01.617Z,20.22
2016-04-02T10:22:01.620Z,20.08
2016-04-02T10:23:01.623Z,19.85
2016-04-02T10:24:01.626Z,19.71
2016-04-02T10:25:01.628Z,19.55
2016-04-02T10:26:01.631Z,19.41
2016-04-02T10:27:01.633Z,19.15
2016-04-02T10:28:01.636Z,18.97
2016-04-02T10:29:01.639Z,18.91
2016-04-02T10:30:01.642Z,18.96
2016-04-02T10:31:01.645Z,19.05
2016-04-02T10:32:01.647Z,19.08
2016-04-02T10:33:01.650Z,18.89
2016-04-02T10:34:01.652Z,18.73
2016-04-02T10:35:01.655Z,18.64
2016-04-02T10:36:01.657Z,18.57
2016-04-02T10:37:01.660Z,18.46
2016-04-02T10:38:01.663Z,18.39
2016-04-02T10:39:01.682Z,18.3
2016-04-02T10:40:01.669Z,18.21
2016-04-02T10:41:01.671Z,18.15
2016-04-02T10:42:01.674Z,18.19
2016-04-02T10:43:01.677Z,18.09
2016-04-02T10:44:01.679Z,18.12
2016-04-02T10:45:01.682Z,18.06
2016-04-02T10:46:01.684Z,18.02
2016-04-02T10:47:01.687Z,17.93
2016-04-02T10:48:01.940Z,17.95
2016-04-02T10:49:01.693Z,18.12
2016-04-02T10:50:01.696Z,18.43
2016-04-02T10:51:01.698Z,18.48
2016-04-02T10:52:01.701Z,18.7
2016-04-02T10:53:01.703Z,18.7
2016-04-02T10:54:01.707Z,18.46
2016-04-02T10:55:01.709Z,18.18
2016-04-02T10:56:01.712Z,18.02
2016-04-02T10:57:01.715Z,17.93
2016-04-02T10:58:01.717Z,17.69
2016-04-02T10:59:01.736Z,17.47
2016-04-02T11:00:01.722Z,17.34
2016-04-02T11:01:01.725Z,17.31
2016-04-02T11:02:01.727Z,17.35
2016-04-02T11:03:01.720Z,17.44
2016-04-02T11:04:01.727Z,17.5
2016-04-02T11:05:01.703Z,17.65
2016-04-02T11:06:01.695Z,17.78
2016-04-02T11:07:01.702Z,17.8
2016-04-02T11:08:01.684Z,17.87
2016-04-02T11:09:01.683Z,17.86
2016-04-02T11:10:01.665Z,17.82
2016-04-02T11:11:01.679Z,17.71
2016-04-02T11:12:01.678Z,17.66
2016-04-02T11:13:01.679Z,17.52
2016-04-02T11:14:01.664Z,17.47
2016-04-02T11:15:01.665Z,17.57
2016-04-02T11:16:01.682Z,17.68
2016-04-02T11:17:01.667Z,17.82
2016-04-02T11:18:01.686Z,17.72
2016-04-02T11:19:01.689Z,17.93
2016-04-02T11:20:01.691Z,17.94
2016-04-02T11:21:01.677Z,17.91
2016-04-02T11:22:01.695Z,17.69
2016-04-02T11:23:01.682Z,17.57
2016-04-02T11:24:01.701Z,17.47
2016-04-02T11:25:01.704Z,17.56
2016-04-02T11:26:01.691Z,17.75
2016-04-02T11:27:01.709Z,17.86
2016-04-02T11:28:01.696Z,18.05
2016-04-02T11:29:01.730Z,17.95
2016-04-02T11:30:01.701Z,17.84
2016-04-02T11:31:01.720Z,17.66
2016-04-02T11:32:01.706Z,17.47
2016-04-02T11:33:01.725Z,17.31
2016-04-02T11:34:01.712Z,17.23
2016-04-02T11:35:01.715Z,17.16
2016-04-02T11:36:01.734Z,17.16
2016-04-02T11:37:01.720Z,17.31
2016-04-02T11:38:01.723Z,17.3
2016-04-02T11:39:01.741Z,17.2
2016-04-02T11:40:02.025Z,17.13
2016-04-02T11:41:01.746Z,17.13
2016-04-02T11:42:01.749Z,17.19
2016-04-02T11:43:01.736Z,17.16
2016-04-02T11:44:01.754Z,17.13
2016-04-02T11:45:01.742Z,17.42
2016-04-02T11:46:01.760Z,17.34
2016-04-02T11:47:01.763Z,17.38
2016-04-02T11:48:01.765Z,17.31
2016-04-02T11:49:01.752Z,17.37
2016-04-02T11:50:01.771Z,17.24
2016-04-02T11:51:01.774Z,17.39
2016-04-02T11:52:01.777Z,17.37
2016-04-02T11:53:01.779Z,17.41
2016-04-02T11:54:01.782Z,17.31
2016-04-02T11:55:01.784Z,17.32
2016-04-02T11:56:01.771Z,17.27
2016-04-02T11:57:01.789Z,17.32
2016-04-02T11:58:01.792Z,17.3
2016-04-02T11:59:01.795Z,17.37
2016-04-02T12:00:01.781Z,17.49
2016-04-02T12:01:01.801Z,17.57
2016-04-02T12:02:01.787Z,17.65
2016-04-02T12:03:01.837Z,17.69
2016-04-02T12:04:01.808Z,17.68
2016-04-02T12:05:01.811Z,17.71
2016-04-02T12:06:01.798Z,17.73
2016-04-02T12:07:01.816Z,17.73
2016-04-02T12:08:01.803Z,17.71
2016-04-02T12:09:01.821Z,17.82
2016-04-02T12:10:01.824Z,17.76
2016-04-02T12:11:01.827Z,17.86
2016-04-02T12:12:01.846Z,17.82
2016-04-02T12:13:01.833Z,17.88
2016-04-02T12:14:01.851Z,17.8
2016-04-02T12:15:01.838Z,17.75
2016-04-02T12:16:01.841Z,17.73
2016-04-02T12:17:01.827Z,17.69
2016-04-02T12:18:01.847Z,17.72
2016-04-02T12:19:01.849Z,17.65
2016-04-02T12:20:01.852Z,17.69
2016-04-02T12:21:01.854Z,17.65
2016-04-02T12:22:01.857Z,17.59
2016-04-02T12:23:01.860Z,17.53
2016-04-02T12:24:01.862Z,17.53
2016-04-02T12:25:01.865Z,17.6
2016-04-02T12:26:01.867Z,17.71
2016-04-02T12:27:01.871Z,17.59
2016-04-02T12:28:01.889Z,17.69
2016-04-02T12:29:01.876Z,17.71
2016-04-02T12:30:01.879Z,17.65
2016-04-02T12:31:01.881Z,17.57
2016-04-02T12:32:02.134Z,17.49
2016-04-02T12:33:01.902Z,17.49
2016-04-02T12:34:01.889Z,17.59
2016-04-02T12:35:01.891Z,17.72
2016-04-02T12:36:01.894Z,17.8
2016-04-02T12:37:01.897Z,17.93
2016-04-02T12:38:01.900Z,17.93
2016-04-02T12:39:01.903Z,18.02
2016-04-02T12:40:01.905Z,17.91
2016-04-02T12:41:01.908Z,18.08
2016-04-02T12:42:01.910Z,18.12
2016-04-02T12:43:01.914Z,18.33
2016-04-02T12:44:01.916Z,18.37
2016-04-02T12:45:01.919Z,18.53
2016-04-02T12:46:01.922Z,18.53
2016-04-02T12:47:01.940Z,18.61
2016-04-02T12:48:01.927Z,18.64
2016-04-02T12:49:01.914Z,18.66
2016-04-02T12:50:01.932Z,18.64
2016-04-02T12:51:01.935Z,18.58
2016-04-02T12:52:01.781Z,18.52
2016-04-02T12:53:01.941Z,18.51
2016-04-02T12:54:01.959Z,18.55
2016-04-02T12:55:01.946Z,18.55
2016-04-02T12:56:01.949Z,18.53
2016-04-02T12:57:01.951Z,18.55
2016-04-02T12:58:01.954Z,18.53
2016-04-02T12:59:01.972Z,18.61
2016-04-02T13:00:01.975Z,18.6
2016-04-02T13:01:01.961Z,18.68
2016-04-02T13:02:01.964Z,18.63
2016-04-02T13:03:01.967Z,18.78
2016-04-02T13:04:01.970Z,18.7
2016-04-02T13:05:01.973Z,18.83
2016-04-02T13:06:01.975Z,18.73
2016-04-02T13:07:01.994Z,18.82